createdAt,value
2022-11-14T00:01:33.711Z,95608.50
2022-11-14T00:04:24.294Z,95616.22
2022-11-14T00:07:13.492Z,95611.50
2022-11-14T00:09:59.813Z,95610.34
2022-11-14T00:12:46.362Z,95608.06
2022-11-14T00:15:33.360Z,95621.31
2022-11-14T00:18:22.001Z,95627.25
2022-11-14T00:21:08.111Z,95623.50
2022-11-14T00:23:54.704Z,95615.16
2022-11-14T00:26:40.936Z,95615.78
2022-11-14T00:29:27.376Z,95622.66
2022-11-14T00:32:13.608Z,95607.78
2022-11-14T00:35:01.543Z,95612.69
2022-11-14T00:37:47.669Z,95618.09
2022-11-14T00:40:33.818Z,95606.13
2022-11-14T00:43:20.684Z,95608.59
2022-11-14T00:46:07.120Z,95603.84
2022-11-14T00:48:53.577Z,95608.25
2022-11-14T00:51:41.049Z,95609.59
2022-11-14T00:54:27.806Z,95610.59
2022-11-14T00:57:14.011Z,95611.41
2022-11-14T01:00:00.382Z,95615.38
2022-11-14T01:02:46.522Z,95606.38
2022-11-14T01:05:32.970Z,95592.59
2022-11-14T01:08:20.902Z,95587.00
2022-11-14T01:11:11.838Z,95573.53
2022-11-14T01:13:58.358Z,95561.34
2022-11-14T01:16:44.586Z,95547.50
2022-11-14T01:19:31.322Z,95532.22
2022-11-14T01:22:17.369Z,95524.22
2022-11-14T01:25:05.867Z,95523.81
2022-11-14T01:27:52.307Z,95516.38
2022-11-14T01:30:39.506Z,95514.75
2022-11-14T01:33:25.925Z,95522.56
2022-11-14T01:36:12.427Z,95528.16
2022-11-14T01:38:58.968Z,95534.22
2022-11-14T01:41:46.359Z,95542.91
2022-11-14T01:44:50.219Z,95560.19
2022-11-14T01:47:36.663Z,95571.88
2022-11-14T01:50:24.230Z,95586.28
2022-11-14T01:53:10.523Z,95592.78
2022-11-14T01:56:00.496Z,95593.47
2022-11-14T01:58:53.448Z,95593.78
2022-11-14T02:01:45.885Z,95600.03
2022-11-14T02:04:36.534Z,95608.88
2022-11-14T02:07:25.059Z,95604.16
2022-11-14T02:10:18.541Z,95601.63
2022-11-14T02:13:05.553Z,95606.25
2022-11-14T02:15:53.366Z,95605.72
2022-11-14T02:18:40.442Z,95586.63
2022-11-14T02:21:28.088Z,95573.03
2022-11-14T02:24:15.310Z,95570.69
2022-11-14T02:27:02.888Z,95564.59
2022-11-14T02:29:50.154Z,95555.81
2022-11-14T02:33:10.137Z,95560.97
2022-11-14T02:35:43.286Z,95561.47
2022-11-14T02:38:31.768Z,95566.50
2022-11-14T02:41:18.518Z,95573.06
2022-11-14T02:44:05.839Z,95574.44
2022-11-14T02:46:52.182Z,95568.38
2022-11-14T02:49:38.950Z,95569.72
2022-11-14T02:52:25.427Z,95567.91
2022-11-14T02:55:13.009Z,95573.81
2022-11-14T02:57:59.531Z,95582.31
2022-11-14T03:01:13.788Z,95586.25
2022-11-14T03:03:52.260Z,95572.34
2022-11-14T03:06:38.477Z,95570.66
2022-11-14T03:09:25.392Z,95566.69
2022-11-14T03:12:12.906Z,95567.81
2022-11-14T03:14:59.815Z,95562.19
2022-11-14T03:17:46.004Z,95559.94
2022-11-14T03:20:32.883Z,95539.63
2022-11-14T03:23:19.337Z,95539.63
2022-11-14T03:26:08.172Z,95522.75
2022-11-14T03:28:56.622Z,95510.34
2022-11-14T03:31:42.789Z,95515.44
2022-11-14T03:34:29.818Z,95518.88
2022-11-14T03:37:15.903Z,95525.28
2022-11-14T03:40:02.641Z,95530.78
2022-11-14T03:42:48.811Z,95531.47
2022-11-14T03:45:37.994Z,95532.91
2022-11-14T03:48:24.808Z,95529.44
2022-11-14T03:51:11.171Z,95516.78
2022-11-14T03:53:58.014Z,95515.31
2022-11-14T03:56:44.365Z,95515.13
2022-11-14T03:59:30.977Z,95518.88
2022-11-14T04:02:18.356Z,95523.13
2022-11-14T04:05:04.712Z,95528.34
2022-11-14T04:07:51.229Z,95520.66
2022-11-14T04:10:37.837Z,95519.81
2022-11-14T04:13:24.145Z,95512.78
2022-11-14T04:16:10.541Z,95503.44
2022-11-14T04:18:58.561Z,95498.53
2022-11-14T04:21:44.695Z,95489.28
2022-11-14T04:24:32.064Z,95476.09
2022-11-14T04:27:18.255Z,95463.03
2022-11-14T04:30:05.117Z,95498.97
2022-11-14T04:32:51.333Z,95510.34
2022-11-14T04:35:40.242Z,95495.97
2022-11-14T04:38:27.046Z,95484.16
2022-11-14T04:41:13.466Z,95500.19
2022-11-14T04:44:00.217Z,95493.50
2022-11-14T04:46:46.322Z,95497.28
2022-11-14T04:49:33.753Z,95494.50
2022-11-14T04:52:21.431Z,95485.03
2022-11-14T04:55:08.310Z,95472.47
2022-11-14T04:57:55.984Z,95470.38
2022-11-14T05:00:43.565Z,95473.59
2022-11-14T05:03:30.713Z,95483.44
2022-11-14T05:06:16.999Z,95503.44
2022-11-14T05:09:05.578Z,95499.84
2022-11-14T05:11:51.941Z,95475.16
2022-11-14T05:14:39.033Z,95479.19
2022-11-14T05:17:25.516Z,95485.75
2022-11-14T05:20:13.218Z,95473.31
2022-11-14T05:22:59.287Z,95479.81
2022-11-14T05:25:47.810Z,95489.00
2022-11-14T05:28:34.933Z,95497.81
2022-11-14T05:31:20.903Z,95502.53
2022-11-14T05:34:07.693Z,95494.78
2022-11-14T05:36:54.181Z,95509.81
2022-11-14T05:39:41.406Z,95509.19
2022-11-14T05:42:29.624Z,95501.84
2022-11-14T05:45:16.548Z,95511.94
2022-11-14T05:48:03.436Z,95513.88
2022-11-14T05:50:49.974Z,95521.38
2022-11-14T05:53:36.705Z,95544.22
2022-11-14T05:56:23.194Z,95537.34
2022-11-14T05:59:10.893Z,95527.59
2022-11-14T06:01:57.629Z,95536.41
2022-11-14T06:04:44.525Z,95531.19
2022-11-14T06:07:30.916Z,95516.91
2022-11-14T06:10:18.309Z,95529.59
2022-11-14T06:13:04.545Z,95519.44
2022-11-14T06:15:52.646Z,95525.25
2022-11-14T06:18:39.545Z,95532.59
2022-11-14T06:21:26.662Z,95544.59
2022-11-14T06:24:12.843Z,95539.53
2022-11-14T06:26:59.158Z,95538.84
2022-11-14T06:29:45.303Z,95538.84
2022-11-14T06:32:33.091Z,95541.31
2022-11-14T06:35:19.137Z,95550.34
2022-11-14T06:38:05.380Z,95556.69
2022-11-14T06:40:51.480Z,95546.84
2022-11-14T06:43:39.308Z,95558.38
2022-11-14T06:46:25.911Z,95565.03
2022-11-14T06:49:14.184Z,95576.25
2022-11-14T06:52:00.589Z,95579.09
2022-11-14T06:54:47.062Z,95583.34
2022-11-14T06:57:33.216Z,95572.50
2022-11-14T07:00:20.124Z,95568.41
2022-11-14T07:03:06.752Z,95570.03
2022-11-14T07:05:54.385Z,95569.31
2022-11-14T07:08:41.792Z,95556.03
2022-11-14T07:11:29.622Z,95563.63
2022-11-14T07:14:15.945Z,95570.16
2022-11-14T07:17:02.347Z,95559.31
2022-11-14T07:19:48.545Z,95556.44
2022-11-14T07:22:36.430Z,95555.09
2022-11-14T07:25:23.604Z,95556.47
2022-11-14T07:28:10.036Z,95554.53
2022-11-14T07:30:56.602Z,95547.84
2022-11-14T07:33:43.946Z,95541.56
2022-11-14T07:36:30.167Z,95535.91
2022-11-14T07:39:18.833Z,95542.81
2022-11-14T07:42:05.139Z,95530.75
2022-11-14T07:44:51.215Z,95533.69
2022-11-14T07:47:37.701Z,95541.72
2022-11-14T07:50:25.053Z,95536.97
2022-11-14T07:53:11.385Z,95534.69
2022-11-14T07:56:03.801Z,95530.22
2022-11-14T07:58:51.010Z,95530.41
2022-11-14T08:01:37.337Z,95526.81
2022-11-14T08:04:24.382Z,95523.22
2022-11-14T08:07:11.016Z,95519.41
2022-11-14T08:09:57.505Z,95521.34
2022-11-14T08:12:45.226Z,95516.91
2022-11-14T08:15:32.091Z,95516.91
2022-11-14T08:18:18.930Z,95526.38
2022-11-14T08:21:05.681Z,95529.63
2022-11-14T08:23:51.926Z,95526.00
2022-11-14T08:26:39.469Z,95527.34
2022-11-14T08:29:27.617Z,95520.03
2022-11-14T08:32:13.754Z,95531.59
2022-11-14T08:35:00.235Z,95533.91
2022-11-14T08:37:46.231Z,95545.72
2022-11-14T08:40:32.913Z,95542.88
2022-11-14T08:43:19.356Z,95550.94
2022-11-14T08:46:07.058Z,95545.59
2022-11-14T08:48:53.686Z,95543.28
2022-11-14T08:51:40.204Z,95537.31
2022-11-14T08:54:26.329Z,95528.97
2022-11-14T08:57:15.188Z,95528.19
2022-11-14T09:00:02.162Z,95530.03
2022-11-14T09:02:49.732Z,95533.16
2022-11-14T09:05:36.557Z,95523.06
2022-11-14T09:08:23.082Z,95528.59
2022-11-14T09:11:10.212Z,95526.88
2022-11-14T09:13:56.856Z,95531.13
2022-11-14T09:16:42.869Z,95527.00
2022-11-14T09:19:31.173Z,95529.41
2022-11-14T09:22:17.384Z,95523.78
2022-11-14T09:25:04.644Z,95538.56
2022-11-14T09:27:51.009Z,95539.72
2022-11-14T09:30:38.570Z,95542.19
2022-11-14T09:33:25.014Z,95538.06
2022-11-14T09:36:15.718Z,95549.97
2022-11-14T09:39:02.220Z,95546.63
2022-11-14T09:42:03.332Z,95564.06
2022-11-14T09:45:02.293Z,95560.72
2022-11-14T09:47:51.520Z,95561.53
2022-11-14T09:50:42.033Z,95561.72
2022-11-14T09:53:34.405Z,95556.44
2022-11-14T09:56:23.771Z,95559.13
2022-11-14T09:59:12.392Z,95559.38
2022-11-14T10:02:02.555Z,95556.00
2022-11-14T10:04:56.204Z,95550.94
2022-11-14T10:07:54.983Z,95556.44
2022-11-14T10:10:53.155Z,95569.09
2022-11-14T10:14:04.275Z,95571.34
2022-11-14T10:17:01.963Z,95561.72
2022-11-14T10:19:59.332Z,95569.31
2022-11-14T10:23:02.866Z,95574.66
2022-11-14T10:25:57.097Z,95580.00
2022-11-14T10:28:55.257Z,95585.03
2022-11-14T10:31:48.481Z,95588.53
2022-11-14T10:34:42.040Z,95588.69
2022-11-14T10:37:32.785Z,95595.84
2022-11-14T10:40:23.667Z,95598.53
2022-11-14T10:43:22.701Z,95594.50
2022-11-14T10:46:14.772Z,95600.59
2022-11-14T10:49:01.582Z,95597.72
2022-11-14T10:51:52.967Z,95604.22
2022-11-14T10:54:45.466Z,95593.25
2022-11-14T10:57:32.985Z,95596.56
2022-11-14T11:00:24.028Z,95588.94
2022-11-14T11:03:10.537Z,95594.59
2022-11-14T11:05:58.157Z,95583.75
2022-11-14T11:09:02.534Z,95579.59
2022-11-14T11:11:56.359Z,95577.66
2022-11-14T11:14:43.505Z,95579.91
2022-11-14T11:17:37.101Z,95579.13
2022-11-14T11:20:33.998Z,95578.53
2022-11-14T11:23:25.246Z,95569.78
2022-11-14T11:26:19.927Z,95571.34
2022-11-14T11:29:15.794Z,95576.97
2022-11-14T11:32:02.374Z,95575.16
2022-11-14T11:34:52.241Z,95573.03
2022-11-14T11:37:43.178Z,95590.63
2022-11-14T11:40:31.373Z,95583.72
2022-11-14T11:43:44.143Z,95584.56
2022-11-14T11:46:41.159Z,95580.00
2022-11-14T11:49:38.085Z,95573.78
2022-11-14T11:52:32.907Z,95579.53
2022-11-14T11:55:24.865Z,95578.56
2022-11-14T11:58:17.910Z,95586.44
2022-11-14T12:01:05.173Z,95578.28
2022-11-14T12:03:53.194Z,95581.34
2022-11-14T12:06:47.312Z,95582.81
2022-11-14T12:10:08.734Z,95581.56
2022-11-14T12:13:23.993Z,95571.50
2022-11-14T12:16:24.981Z,95569.31
2022-11-14T12:19:38.950Z,95571.81
2022-11-14T12:22:42.852Z,95573.47
2022-11-14T12:25:46.043Z,95563.31
2022-11-14T12:28:53.560Z,95567.19
2022-11-14T12:31:41.780Z,95569.03
2022-11-14T12:34:32.849Z,95544.47
2022-11-14T12:37:24.545Z,95530.13
2022-11-14T12:40:24.715Z,95546.84
2022-11-14T12:43:36.058Z,95539.41
2022-11-14T12:46:22.816Z,95538.78
2022-11-14T12:49:38.242Z,95536.88
2022-11-14T12:52:46.357Z,95538.41
2022-11-14T12:55:57.131Z,95543.31
2022-11-14T12:58:59.621Z,95551.63
2022-11-14T13:02:06.901Z,95557.28
2022-11-14T13:05:13.747Z,95553.91
2022-11-14T13:08:16.465Z,95546.28
2022-11-14T13:11:49.997Z,95536.22
2022-11-14T13:15:09.276Z,95536.53
2022-11-14T13:18:23.410Z,95546.38
2022-11-14T13:21:45.309Z,95537.19
2022-11-14T13:25:10.448Z,95537.03
2022-11-14T13:28:21.713Z,95542.78
2022-11-14T13:31:20.278Z,95535.41
2022-11-14T13:34:40.097Z,95540.28
2022-11-14T13:37:42.327Z,95539.69
2022-11-14T13:40:36.013Z,95543.41
2022-11-14T13:43:34.054Z,95549.75
2022-11-14T13:46:35.956Z,95547.50
2022-11-14T13:49:52.302Z,95556.94
2022-11-14T13:52:44.536Z,95556.53
2022-11-14T13:55:39.567Z,95542.28
2022-11-14T13:58:39.611Z,95541.69
2022-11-14T14:01:46.171Z,95534.72
2022-11-14T14:04:46.122Z,95541.31
2022-11-14T14:07:48.190Z,95539.69
2022-11-14T14:10:42.826Z,95541.97
2022-11-14T14:13:43.466Z,95533.66
2022-11-14T14:16:42.913Z,95531.22
2022-11-14T14:19:44.534Z,95531.00
2022-11-14T14:22:43.694Z,95534.09
2022-11-14T14:25:40.475Z,95526.75
2022-11-14T14:28:40.438Z,95538.44
2022-11-14T14:31:36.341Z,95533.78
2022-11-14T14:34:28.222Z,95546.66
2022-11-14T14:37:20.386Z,95534.84
2022-11-14T14:40:11.029Z,95534.66
2022-11-14T14:42:58.604Z,95536.28
2022-11-14T14:45:49.776Z,95530.97
2022-11-14T14:48:40.050Z,95531.63
2022-11-14T14:51:36.902Z,95524.88
2022-11-14T14:54:25.564Z,95527.34
2022-11-14T14:57:20.441Z,95525.94
2022-11-14T15:00:19.760Z,95517.34
2022-11-14T15:03:06.996Z,95515.53
2022-11-14T15:06:00.230Z,95526.97
2022-11-14T15:08:48.432Z,95523.94
2022-11-14T15:11:36.092Z,95528.22
2022-11-14T15:14:24.326Z,95520.25
2022-11-14T15:17:11.850Z,95516.56
2022-11-14T15:19:58.316Z,95514.75
2022-11-14T15:23:03.444Z,95517.22
2022-11-14T15:26:03.115Z,95522.31
2022-11-14T15:28:49.857Z,95516.41
2022-11-14T15:31:37.272Z,95518.47
2022-11-14T15:34:29.346Z,95530.31
2022-11-14T15:37:24.625Z,95522.56
2022-11-14T15:40:19.105Z,95514.03
2022-11-14T15:43:38.938Z,95516.88
2022-11-14T15:46:42.257Z,95528.47
2022-11-14T15:49:28.854Z,95522.13
2022-11-14T15:52:22.359Z,95534.31
2022-11-14T15:55:15.221Z,95531.69
2022-11-14T15:58:26.601Z,95533.28
2022-11-14T16:01:17.123Z,95543.63
2022-11-14T16:04:04.092Z,95544.28
2022-11-14T16:06:51.362Z,95538.56
2022-11-14T16:09:38.165Z,95532.22
2022-11-14T16:12:25.015Z,95538.75
2022-11-14T16:15:12.727Z,95548.59
2022-11-14T16:18:00.664Z,95538.34
2022-11-14T16:20:46.803Z,95544.50
2022-11-14T16:23:34.001Z,95538.84
2022-11-14T16:26:20.769Z,95536.91
2022-11-14T16:29:07.743Z,95543.94
2022-11-14T16:31:55.235Z,95545.00
2022-11-14T16:34:42.871Z,95543.72
2022-11-14T16:37:29.173Z,95549.13
2022-11-14T16:40:19.279Z,95545.66
2022-11-14T16:43:06.338Z,95564.34
2022-11-14T16:45:52.460Z,95554.94
2022-11-14T16:48:38.962Z,95567.44
2022-11-14T16:51:47.364Z,95559.88
2022-11-14T16:54:33.707Z,95570.63
2022-11-14T16:57:20.272Z,95572.97
2022-11-14T17:00:09.297Z,95564.78
2022-11-14T17:02:56.138Z,95578.69
2022-11-14T17:05:44.622Z,95571.22
2022-11-14T17:08:32.968Z,95574.75
2022-11-14T17:11:19.195Z,95566.09
2022-11-14T17:14:06.476Z,95580.72
2022-11-14T17:16:52.825Z,95580.16
2022-11-14T17:19:45.682Z,95570.44
2022-11-14T17:22:32.688Z,95575.19
2022-11-14T17:25:20.371Z,95571.59
2022-11-14T17:28:06.730Z,95585.28
2022-11-14T17:30:53.019Z,95576.63
2022-11-14T17:33:39.827Z,95575.81
2022-11-14T17:36:28.412Z,95580.41
2022-11-14T17:39:15.148Z,95587.13
2022-11-14T17:42:02.806Z,95579.66
2022-11-14T17:44:48.979Z,95582.91
2022-11-14T17:47:35.155Z,95581.47
2022-11-14T17:50:21.434Z,95582.25
2022-11-14T17:53:08.032Z,95575.91
2022-11-14T17:55:57.047Z,95590.81
2022-11-14T17:58:45.505Z,95591.09
2022-11-14T18:01:32.162Z,95585.81
2022-11-14T18:04:18.744Z,95587.94
2022-11-14T18:07:04.971Z,95585.66
2022-11-14T18:09:51.082Z,95584.22
2022-11-14T18:12:38.209Z,95579.78
2022-11-14T18:15:28.178Z,95585.56
2022-11-14T18:18:14.650Z,95595.75
2022-11-14T18:21:07.347Z,95581.94
2022-11-14T18:23:56.155Z,95592.97
2022-11-14T18:26:42.673Z,95583.28
2022-11-14T18:29:30.705Z,95589.53
2022-11-14T18:32:18.506Z,95587.91
2022-11-14T18:35:05.472Z,95586.09
2022-11-14T18:37:51.849Z,95582.28
2022-11-14T18:40:38.006Z,95589.22
2022-11-14T18:43:25.008Z,95578.72
2022-11-14T18:46:12.949Z,95571.84
2022-11-14T18:49:00.854Z,95581.34
2022-11-14T18:51:47.553Z,95572.31
2022-11-14T18:54:33.779Z,95569.84
2022-11-14T18:57:20.644Z,95573.19
2022-11-14T19:00:08.205Z,95575.00
2022-11-14T19:02:55.041Z,95568.91
2022-11-14T19:05:43.033Z,95572.22
2022-11-14T19:08:29.098Z,95564.75
2022-11-14T19:11:36.830Z,95569.38
2022-11-14T19:14:23.314Z,95560.34
2022-11-14T19:17:10.367Z,95559.88
2022-11-14T19:19:56.462Z,95563.31
2022-11-14T19:22:45.035Z,95558.88
2022-11-14T19:25:36.788Z,95567.13
2022-11-14T19:28:25.500Z,95562.38
2022-11-14T19:31:12.333Z,95557.31
2022-11-14T19:33:59.520Z,95557.63
2022-11-14T19:36:59.461Z,95555.31
2022-11-14T19:39:52.260Z,95553.50
2022-11-14T19:42:39.515Z,95545.44
2022-11-14T19:45:25.749Z,95542.81
2022-11-14T19:48:12.499Z,95547.44
2022-11-14T19:51:03.291Z,95550.72
2022-11-14T19:53:50.105Z,95549.72
2022-11-14T19:56:37.648Z,95546.09
2022-11-14T19:59:27.786Z,95552.28
2022-11-14T20:02:15.093Z,95545.19
2022-11-14T20:05:01.291Z,95553.66
2022-11-14T20:07:48.073Z,95552.03
2022-11-14T20:10:47.393Z,95547.63
2022-11-14T20:13:38.347Z,95555.47
2022-11-14T20:16:26.011Z,95545.16
2022-11-14T20:19:13.919Z,95546.97
2022-11-14T20:22:00.234Z,95552.53
2022-11-14T20:24:46.868Z,95545.31
2022-11-14T20:27:33.042Z,95543.84
2022-11-14T20:30:21.669Z,95541.56
2022-11-14T20:33:08.925Z,95545.16
2022-11-14T20:35:55.214Z,95537.84
2022-11-14T20:38:42.198Z,95542.78
2022-11-14T20:41:28.710Z,95539.09
2022-11-14T20:44:15.145Z,95536.13
2022-11-14T20:47:05.114Z,95539.09
2022-11-14T20:49:55.344Z,95544.00
2022-11-14T20:52:41.824Z,95540.09
2022-11-14T20:55:28.670Z,95542.06
2022-11-14T20:58:15.215Z,95544.25
2022-11-14T21:01:01.689Z,95538.19
2022-11-14T21:03:49.679Z,95530.84
2022-11-14T21:06:35.728Z,95537.59
2022-11-14T21:09:22.100Z,95536.78
2022-11-14T21:12:08.315Z,95533.16
2022-11-14T21:14:54.684Z,95539.56
2022-11-14T21:17:40.916Z,95542.19
2022-11-14T21:20:28.488Z,95539.72
2022-11-14T21:23:14.934Z,95536.31
2022-11-14T21:26:06.253Z,95532.53
2022-11-14T21:28:56.368Z,95523.34
2022-11-14T21:31:45.515Z,95526.75
2022-11-14T21:34:34.499Z,95521.50
2022-11-14T21:37:22.068Z,95520.16
2022-11-14T21:40:09.884Z,95516.72
2022-11-14T21:42:56.292Z,95517.41
2022-11-14T21:45:42.957Z,95523.31
2022-11-14T21:48:31.637Z,95522.00
2022-11-14T21:51:20.157Z,95515.44
2022-11-14T21:54:08.206Z,95513.47
2022-11-14T21:56:54.572Z,95515.97
2022-11-14T21:59:41.664Z,95517.28
2022-11-14T22:02:45.756Z,95520.25
2022-11-14T22:05:33.201Z,95512.06
2022-11-14T22:08:19.671Z,95509.91
2022-11-14T22:11:07.271Z,95512.69
2022-11-14T22:13:53.388Z,95510.72
2022-11-14T22:16:39.507Z,95502.19
2022-11-14T22:19:26.467Z,95505.78
2022-11-14T22:22:12.457Z,95503.69
2022-11-14T22:24:59.617Z,95502.19
2022-11-14T22:27:47.494Z,95509.38
2022-11-14T22:30:33.556Z,95505.44
2022-11-14T22:33:20.296Z,95504.47
2022-11-14T22:36:08.651Z,95501.88
2022-11-14T22:38:57.274Z,95503.00
2022-11-14T22:41:43.520Z,95500.84
2022-11-14T22:44:31.437Z,95499.06
2022-11-14T22:47:17.951Z,95498.25
2022-11-14T22:50:06.001Z,95504.28
2022-11-14T22:52:52.284Z,95494.16
2022-11-14T22:55:48.113Z,95497.25
2022-11-14T22:58:36.229Z,95501.94
2022-11-14T23:01:26.113Z,95503.25
2022-11-14T23:04:13.483Z,95503.72
2022-11-14T23:06:59.777Z,95498.41
2022-11-14T23:09:46.653Z,95495.97
2022-11-14T23:12:32.812Z,95506.25
2022-11-14T23:15:19.353Z,95502.47
2022-11-14T23:18:07.741Z,95498.06
2022-11-14T23:20:54.171Z,95497.22
2022-11-14T23:23:40.553Z,95496.41
2022-11-14T23:26:27.678Z,95490.16
2022-11-14T23:29:15.247Z,95483.91
2022-11-14T23:32:01.281Z,95487.84
2022-11-14T23:34:49.650Z,95488.78
2022-11-14T23:37:35.878Z,95489.69
2022-11-14T23:40:23.074Z,95485.31
2022-11-14T23:43:09.198Z,95491.66
2022-11-14T23:45:55.666Z,95479.03
2022-11-14T23:48:42.236Z,95483.13
2022-11-14T23:51:29.810Z,95485.25
2022-11-14T23:54:17.080Z,95474.13
2022-11-14T23:57:04.764Z,95476.09
2022-11-14T23:59:51.258Z,95474.13
